createdAt,value
2022-09-16T00:01:02.038Z,100139.03
2022-09-16T00:03:29.827Z,100118.59
2022-09-16T00:05:58.637Z,100150.69
2022-09-16T00:08:26.361Z,100151.34
2022-09-16T00:10:53.928Z,100148.97
2022-09-16T00:13:21.678Z,100123.81
2022-09-16T00:15:53.284Z,100147.63
2022-09-16T00:18:21.497Z,100136.53
2022-09-16T00:20:51.982Z,100141.78
2022-09-16T00:23:20.226Z,100138.22
2022-09-16T00:25:55.351Z,100078.50
2022-09-16T00:28:24.315Z,100141.31
2022-09-16T00:30:52.059Z,100104.53
2022-09-16T00:33:20.754Z,100110.41
2022-09-16T00:35:48.481Z,100058.50
2022-09-16T00:38:16.392Z,100080.56
2022-09-16T00:40:46.406Z,100136.16
2022-09-16T00:43:19.016Z,100137.75
2022-09-16T00:45:55.425Z,100094.66
2022-09-16T00:48:26.170Z,100132.25
2022-09-16T00:51:02.492Z,100081.81
2022-09-16T00:53:34.485Z,100141.25
2022-09-16T00:56:05.854Z,100095.31
2022-09-16T00:58:44.563Z,100125.78
2022-09-16T01:01:12.330Z,100128.63
2022-09-16T01:03:47.199Z,100089.16
2022-09-16T01:06:16.973Z,100124.34
2022-09-16T01:08:45.636Z,100117.22
2022-09-16T01:11:13.257Z,100112.34
2022-09-16T01:13:42.906Z,100077.31
2022-09-16T01:16:18.556Z,100101.31
2022-09-16T01:18:55.526Z,100115.19
2022-09-16T01:21:32.072Z,100103.69
2022-09-16T01:24:04.183Z,100115.91
2022-09-16T01:26:49.710Z,100121.72
2022-09-16T01:29:35.660Z,100125.28
2022-09-16T01:32:24.637Z,100119.75
2022-09-16T01:34:58.129Z,100120.09
2022-09-16T01:37:31.654Z,100089.72
2022-09-16T01:40:33.609Z,100097.00
2022-09-16T01:43:13.424Z,100059.75
2022-09-16T01:45:59.083Z,100112.97
2022-09-16T01:48:39.521Z,100116.09
2022-09-16T01:51:22.461Z,100109.78
2022-09-16T01:53:57.834Z,100116.91
2022-09-16T01:56:43.735Z,100111.81
2022-09-16T01:59:19.282Z,100104.69
2022-09-16T02:01:49.826Z,100104.25
2022-09-16T02:04:24.399Z,100073.00
2022-09-16T02:06:56.311Z,100091.03
2022-09-16T02:09:30.745Z,100048.72
2022-09-16T02:12:05.536Z,100093.97
2022-09-16T02:14:40.591Z,100101.06
2022-09-16T02:17:11.618Z,100078.69
2022-09-16T02:19:55.584Z,100103.41
2022-09-16T02:22:33.369Z,100061.34
2022-09-16T02:25:03.356Z,100109.63
2022-09-16T02:27:32.580Z,100072.56
2022-09-16T02:30:05.798Z,100097.72
2022-09-16T02:32:38.284Z,100107.28
2022-09-16T02:35:10.693Z,100113.97
2022-09-16T02:37:41.975Z,100108.81
2022-09-16T02:40:22.740Z,100113.97
2022-09-16T02:42:50.552Z,100094.88
2022-09-16T02:45:18.477Z,100083.06
2022-09-16T02:48:05.903Z,100072.72
2022-09-16T02:50:44.054Z,100114.28
2022-09-16T02:53:24.081Z,100107.16
2022-09-16T02:56:01.058Z,100110.25
2022-09-16T02:58:29.850Z,100112.22
2022-09-16T03:00:58.710Z,100063.31
2022-09-16T03:03:26.430Z,100074.09
2022-09-16T03:06:09.513Z,100099.22
2022-09-16T03:08:37.974Z,100109.38
2022-09-16T03:11:40.384Z,100096.03
2022-09-16T03:14:10.857Z,100106.25
2022-09-16T03:16:50.655Z,100103.06
2022-09-16T03:19:39.527Z,100114.09
2022-09-16T03:22:26.965Z,100060.50
2022-09-16T03:25:06.487Z,100110.53
2022-09-16T03:27:59.937Z,100068.56
2022-09-16T03:30:30.542Z,100072.50
2022-09-16T03:33:10.078Z,100102.00
2022-09-16T03:35:44.301Z,100110.97
2022-09-16T03:38:14.003Z,100113.31
2022-09-16T03:40:43.125Z,100068.56
2022-09-16T03:43:16.203Z,100058.97
2022-09-16T03:45:44.433Z,100098.09
2022-09-16T03:48:13.497Z,100086.41
2022-09-16T03:50:41.460Z,100087.31
2022-09-16T03:53:10.301Z,100110.91
2022-09-16T03:55:37.933Z,100110.91
2022-09-16T03:58:05.554Z,100111.72
2022-09-16T04:00:33.459Z,100069.25
2022-09-16T04:03:01.506Z,100072.38
2022-09-16T04:05:29.387Z,100094.69
2022-09-16T04:07:57.086Z,100080.59
2022-09-16T04:10:24.743Z,100112.94
2022-09-16T04:12:57.242Z,100071.78
2022-09-16T04:15:24.909Z,100116.25
2022-09-16T04:17:52.721Z,100076.22
2022-09-16T04:20:20.466Z,100117.84
2022-09-16T04:22:48.099Z,100115.16
2022-09-16T04:25:15.800Z,100085.09
2022-09-16T04:27:43.454Z,100109.81
2022-09-16T04:30:11.958Z,100115.09
2022-09-16T04:32:39.707Z,100099.31
2022-09-16T04:35:07.705Z,100077.28
2022-09-16T04:37:35.572Z,100098.59
2022-09-16T04:40:05.226Z,100101.09
2022-09-16T04:42:33.028Z,100114.88
2022-09-16T04:45:00.721Z,100111.34
2022-09-16T04:47:29.172Z,100028.50
2022-09-16T04:49:56.873Z,100116.25
2022-09-16T04:52:24.615Z,100081.38
2022-09-16T04:54:52.400Z,100083.41
2022-09-16T04:57:20.164Z,100092.22
2022-09-16T04:59:47.991Z,100092.72
2022-09-16T05:02:15.700Z,100099.13
2022-09-16T05:04:43.323Z,100028.66
2022-09-16T05:07:10.973Z,100039.75
2022-09-16T05:09:38.707Z,100062.16
2022-09-16T05:12:07.000Z,100047.41
2022-09-16T05:14:34.681Z,100080.59
2022-09-16T05:17:02.675Z,100071.34
2022-09-16T05:19:30.942Z,100112.13
2022-09-16T05:21:58.671Z,100097.72
2022-09-16T05:24:26.473Z,100113.53
2022-09-16T05:26:54.194Z,100132.41
2022-09-16T05:29:22.200Z,100095.78
2022-09-16T05:31:49.967Z,100115.69
2022-09-16T05:34:23.292Z,100131.00
2022-09-16T05:36:54.105Z,100135.72
2022-09-16T05:39:24.785Z,100134.91
2022-09-16T05:42:00.670Z,100116.22
2022-09-16T05:44:29.125Z,100143.72
2022-09-16T05:46:57.114Z,100160.38
2022-09-16T05:49:26.678Z,100147.88
2022-09-16T05:51:54.603Z,100135.44
2022-09-16T05:54:25.550Z,100155.09
2022-09-16T05:56:56.175Z,100092.31
2022-09-16T05:59:24.175Z,100102.72
2022-09-16T06:01:51.918Z,100142.84
2022-09-16T06:04:19.643Z,100103.06
2022-09-16T06:06:47.676Z,100125.38
2022-09-16T06:09:20.118Z,100158.03
2022-09-16T06:11:49.854Z,100155.66
2022-09-16T06:14:19.079Z,100097.19
2022-09-16T06:16:47.048Z,100150.50
2022-09-16T06:19:17.720Z,100146.59
2022-09-16T06:21:46.226Z,100154.84
2022-09-16T06:24:15.955Z,100132.41
2022-09-16T06:26:45.230Z,100164.63
2022-09-16T06:29:13.772Z,100170.47
2022-09-16T06:31:41.902Z,100161.06
2022-09-16T06:34:15.031Z,100166.56
2022-09-16T06:36:45.379Z,100166.22
2022-09-16T06:39:15.167Z,100167.03
2022-09-16T06:41:43.213Z,100170.13
2022-09-16T06:44:11.157Z,100141.41
2022-09-16T06:46:39.012Z,100165.09
2022-09-16T06:49:07.077Z,100103.78
2022-09-16T06:51:36.280Z,100164.28
2022-09-16T06:54:06.653Z,100158.84
2022-09-16T06:56:37.782Z,100153.59
2022-09-16T06:59:05.714Z,100100.13
2022-09-16T07:01:34.024Z,100167.47
2022-09-16T07:04:07.547Z,100115.06
2022-09-16T07:09:23.040Z,100144.66
2022-09-16T07:11:52.482Z,100153.69
2022-09-16T07:14:20.295Z,100137.03
2022-09-16T07:16:48.242Z,100181.88
2022-09-16T07:19:15.884Z,100163.03
2022-09-16T07:21:43.784Z,100181.81
2022-09-16T07:24:13.245Z,100134.19
2022-09-16T07:26:42.086Z,100178.16
2022-09-16T07:29:15.334Z,100193.34
2022-09-16T07:31:43.449Z,100164.94
2022-09-16T07:34:12.602Z,100168.28
2022-09-16T07:36:46.053Z,100191.41
2022-09-16T07:39:15.390Z,100173.00
2022-09-16T07:41:44.770Z,100141.03
2022-09-16T07:44:15.120Z,100174.22
2022-09-16T07:46:43.371Z,100180.97
2022-09-16T07:49:13.510Z,100157.22
2022-09-16T07:51:41.773Z,100200.75
2022-09-16T07:54:13.938Z,100204.75
2022-09-16T07:56:43.197Z,100188.38
2022-09-16T07:59:17.507Z,100193.09
2022-09-16T08:01:49.549Z,100184.78
2022-09-16T08:04:19.602Z,100227.59
2022-09-16T08:06:47.930Z,100224.84
2022-09-16T08:09:37.266Z,100211.31
2022-09-16T08:12:05.724Z,100212.22
2022-09-16T08:14:33.736Z,100220.94
2022-09-16T08:17:02.144Z,100204.66
2022-09-16T08:19:29.823Z,100165.75
2022-09-16T08:21:57.548Z,100181.59
2022-09-16T08:24:25.285Z,100175.72
2022-09-16T08:26:53.062Z,100217.47
2022-09-16T08:29:22.664Z,100162.28
2022-09-16T08:31:50.529Z,100187.22
2022-09-16T08:34:18.281Z,100202.78
2022-09-16T08:36:45.997Z,100178.50
2022-09-16T08:39:16.063Z,100192.91
2022-09-16T08:42:07.990Z,100192.91
2022-09-16T08:44:58.722Z,100217.38
2022-09-16T08:47:29.078Z,100220.50
2022-09-16T08:50:00.730Z,100228.78
2022-09-16T08:52:37.090Z,100190.78
2022-09-16T08:55:08.514Z,100235.88
2022-09-16T08:57:41.733Z,100226.44
2022-09-16T09:00:18.634Z,100183.75
2022-09-16T09:03:27.873Z,100224.13
2022-09-16T09:05:57.807Z,100158.03
2022-09-16T09:08:28.691Z,100214.63
2022-09-16T09:11:19.156Z,100164.06
2022-09-16T09:14:11.871Z,100205.53
2022-09-16T09:16:49.066Z,100143.63
2022-09-16T09:19:22.691Z,100192.09
2022-09-16T09:22:30.128Z,100198.44
2022-09-16T09:25:38.767Z,100207.50
2022-09-16T09:28:30.831Z,100199.66
2022-09-16T09:31:16.668Z,100205.19
2022-09-16T09:34:24.017Z,100199.47
2022-09-16T09:37:10.202Z,100222.16
2022-09-16T09:40:16.220Z,100211.25
2022-09-16T09:43:05.310Z,100224.22
2022-09-16T09:45:38.753Z,100162.66
2022-09-16T09:48:20.986Z,100175.47
2022-09-16T09:50:50.740Z,100217.53
2022-09-16T09:53:28.527Z,100212.03
2022-09-16T09:56:24.206Z,100205.28
2022-09-16T09:58:59.216Z,100211.13
2022-09-16T10:01:26.999Z,100139.44
2022-09-16T10:03:56.236Z,100195.13
2022-09-16T10:06:30.789Z,100197.25
2022-09-16T10:08:59.431Z,100201.97
2022-09-16T10:11:31.350Z,100206.34
2022-09-16T10:14:04.999Z,100217.38
2022-09-16T10:16:37.477Z,100222.88
2022-09-16T10:19:18.138Z,100219.94
2022-09-16T10:21:51.336Z,100247.72
2022-09-16T10:24:32.480Z,100244.53
2022-09-16T10:27:02.125Z,100202.94
2022-09-16T10:29:30.335Z,100255.00
2022-09-16T10:32:06.604Z,100230.47
2022-09-16T10:34:39.149Z,100273.53
2022-09-16T10:37:18.435Z,100260.16
2022-09-16T10:39:53.718Z,100254.31
2022-09-16T10:42:26.565Z,100257.94
2022-09-16T10:44:59.681Z,100239.06
2022-09-16T10:47:31.613Z,100264.28
2022-09-16T10:50:06.120Z,100226.44
2022-09-16T10:52:45.918Z,100200.47
2022-09-16T10:55:20.467Z,100244.97
2022-09-16T10:57:48.467Z,100215.22
2022-09-16T11:00:19.071Z,100248.63
2022-09-16T11:03:12.095Z,100193.19
2022-09-16T11:05:48.659Z,100241.22
2022-09-16T11:08:19.159Z,100244.69
2022-09-16T11:11:09.727Z,100222.63
2022-09-16T11:14:06.382Z,100223.44
2022-09-16T11:17:01.454Z,100224.13
2022-09-16T11:19:29.222Z,100217.81
2022-09-16T11:22:20.185Z,100224.22
2022-09-16T11:25:15.373Z,100227.78
2022-09-16T11:28:07.402Z,100223.44
2022-09-16T11:30:49.166Z,100225.81
2022-09-16T11:33:32.573Z,100217.09
2022-09-16T11:36:25.161Z,100197.28
2022-09-16T11:39:22.572Z,100194.50
2022-09-16T11:42:06.782Z,100217.19
2022-09-16T11:44:48.235Z,100187.22
2022-09-16T11:47:43.736Z,100195.31
2022-09-16T11:50:23.431Z,100192.91
2022-09-16T11:53:20.210Z,100191.41
2022-09-16T11:55:58.834Z,100156.97
2022-09-16T11:58:35.505Z,100180.91
2022-09-16T12:01:30.560Z,100155.72
2022-09-16T12:04:18.455Z,100177.41
2022-09-16T12:06:56.491Z,100169.78
2022-09-16T12:09:38.284Z,100151.00
2022-09-16T12:12:13.720Z,100149.41
2022-09-16T12:14:46.874Z,100114.66
2022-09-16T12:17:22.063Z,100105.72
2022-09-16T12:19:57.737Z,100137.75
2022-09-16T12:22:43.562Z,100148.16
2022-09-16T12:25:33.224Z,100124.22
2022-09-16T12:28:25.026Z,100146.63
2022-09-16T12:31:35.171Z,100158.84
2022-09-16T12:34:10.223Z,100111.50
2022-09-16T12:36:43.280Z,100157.78
2022-09-16T12:39:15.886Z,100104.22
2022-09-16T12:42:00.550Z,100171.28
2022-09-16T12:44:49.475Z,100146.47
2022-09-16T12:47:55.004Z,100136.34
2022-09-16T12:50:45.880Z,100141.13
2022-09-16T12:53:22.827Z,100142.03
2022-09-16T12:55:53.526Z,100151.16
2022-09-16T12:58:27.395Z,100151.59
2022-09-16T13:01:07.400Z,100146.97
2022-09-16T13:03:40.582Z,100153.28
2022-09-16T13:06:33.278Z,100097.66
2022-09-16T13:09:25.541Z,100139.41
2022-09-16T13:15:07.215Z,100124.91
2022-09-16T13:17:39.791Z,100122.56
2022-09-16T13:20:17.926Z,100089.59
2022-09-16T13:22:52.919Z,100067.75
2022-09-16T13:25:26.547Z,100115.53
2022-09-16T13:28:03.147Z,100118.28
2022-09-16T13:30:39.357Z,100112.28
2022-09-16T13:33:10.049Z,100094.03
2022-09-16T13:35:41.939Z,100086.13
2022-09-16T13:38:18.633Z,100092.38
2022-09-16T13:40:53.839Z,100095.41
2022-09-16T13:43:47.481Z,100090.88
2022-09-16T13:46:31.475Z,100043.84
2022-09-16T13:49:11.163Z,100025.47
2022-09-16T13:51:45.311Z,100060.50
2022-09-16T13:54:25.790Z,100061.28
2022-09-16T13:57:12.580Z,100056.56
2022-09-16T13:59:46.750Z,100052.28
2022-09-16T14:02:37.557Z,100048.19
2022-09-16T14:05:43.128Z,100034.59
2022-09-16T14:08:40.756Z,99973.13
2022-09-16T14:11:32.353Z,99977.91
2022-09-16T14:14:15.693Z,99974.56
2022-09-16T14:16:53.934Z,100035.69
2022-09-16T14:19:21.543Z,100037.19
2022-09-16T14:22:27.479Z,100039.06
2022-09-16T14:25:06.725Z,99998.19
2022-09-16T14:27:40.837Z,100036.75
2022-09-16T14:30:17.657Z,100016.75
2022-09-16T14:32:47.445Z,100021.91
2022-09-16T14:35:24.935Z,99995.34
2022-09-16T14:37:57.710Z,100009.50
2022-09-16T14:40:29.661Z,100006.47
2022-09-16T14:43:03.505Z,100003.81
2022-09-16T14:45:32.998Z,100009.88
2022-09-16T14:48:05.816Z,99957.53
2022-09-16T14:50:38.280Z,99977.13
2022-09-16T14:53:24.294Z,99952.28
2022-09-16T14:55:55.535Z,99945.09
2022-09-16T14:58:25.621Z,99950.72
2022-09-16T15:00:59.964Z,99996.09
2022-09-16T15:03:55.142Z,100004.16
2022-09-16T15:06:29.062Z,99975.22
2022-09-16T15:09:15.934Z,99974.34
2022-09-16T15:11:57.103Z,99971.31
2022-09-16T15:14:26.607Z,99967.94
2022-09-16T15:17:01.497Z,99975.66
2022-09-16T15:19:35.472Z,99900.44
2022-09-16T15:22:04.632Z,99993.34
2022-09-16T15:24:34.558Z,99987.91
2022-09-16T15:27:03.059Z,99940.47
2022-09-16T15:29:34.183Z,99945.78
2022-09-16T15:32:21.049Z,99935.69
2022-09-16T15:34:49.869Z,99972.34
2022-09-16T15:37:32.799Z,99988.47
2022-09-16T15:40:20.869Z,99991.72
2022-09-16T15:43:00.964Z,99997.31
2022-09-16T15:45:28.872Z,99973.25
2022-09-16T15:48:17.563Z,99982.00
2022-09-16T15:51:02.831Z,99971.88
2022-09-16T15:53:30.395Z,99989.41
2022-09-16T15:56:07.470Z,99977.41
2022-09-16T15:58:44.574Z,99967.88
2022-09-16T16:01:19.431Z,99951.03
2022-09-16T16:03:53.380Z,99975.88
2022-09-16T16:06:41.544Z,99954.22
2022-09-16T16:09:28.303Z,99973.94
2022-09-16T16:12:00.736Z,99962.06
2022-09-16T16:14:32.376Z,99940.13
2022-09-16T16:17:20.171Z,99975.72
2022-09-16T16:19:50.557Z,99951.47
2022-09-16T16:22:18.489Z,99945.78
2022-09-16T16:24:46.179Z,99937.94
2022-09-16T16:27:13.962Z,99925.91
2022-09-16T16:29:41.571Z,99940.28
2022-09-16T16:32:15.226Z,99950.09
2022-09-16T16:34:45.829Z,99930.94
2022-09-16T16:37:33.851Z,99952.59
2022-09-16T16:40:06.079Z,99949.03
2022-09-16T16:42:34.875Z,99899.34
2022-09-16T16:45:02.827Z,99924.81
2022-09-16T16:47:30.991Z,99950.31
2022-09-16T16:49:59.881Z,99765.94
2022-09-16T16:52:27.692Z,99864.44
2022-09-16T16:54:55.380Z,99901.22
2022-09-16T16:57:23.086Z,99921.19
2022-09-16T16:59:51.956Z,99935.56
2022-09-16T17:02:19.816Z,99900.78
2022-09-16T17:04:47.550Z,99936.94
2022-09-16T17:07:25.702Z,99914.19
2022-09-16T17:09:54.539Z,99950.88
2022-09-16T17:12:22.275Z,99967.47
2022-09-16T17:14:50.050Z,99969.00
2022-09-16T17:17:17.984Z,99986.41
2022-09-16T17:19:45.663Z,99932.88
2022-09-16T17:22:13.349Z,99912.88
2022-09-16T17:24:40.972Z,99976.28
2022-09-16T17:27:08.482Z,99979.81
2022-09-16T17:29:36.036Z,99987.03
2022-09-16T17:32:03.659Z,99957.97
2022-09-16T17:34:31.499Z,99943.94
2022-09-16T17:36:59.196Z,99914.50
2022-09-16T17:39:27.226Z,99963.44
2022-09-16T17:41:56.932Z,99947.03
2022-09-16T17:44:25.065Z,99904.34
2022-09-16T17:46:53.790Z,99893.00
2022-09-16T17:49:24.213Z,99943.31
2022-09-16T17:51:53.577Z,99949.63
2022-09-16T17:54:22.333Z,99922.22
2022-09-16T17:56:50.024Z,99916.97
2022-09-16T17:59:19.091Z,99969.38
2022-09-16T18:01:47.229Z,99945.06
2022-09-16T18:04:14.982Z,99995.97
2022-09-16T18:06:45.058Z,99979.53
2022-09-16T18:09:13.784Z,99928.44
2022-09-16T18:11:41.501Z,99992.84
2022-09-16T18:14:12.773Z,99949.72
2022-09-16T18:16:41.453Z,99982.44
2022-09-16T18:19:09.780Z,99975.78
2022-09-16T18:21:38.549Z,99956.59
2022-09-16T18:24:11.387Z,100000.59
2022-09-16T18:26:42.353Z,100002.66
2022-09-16T18:29:12.975Z,99947.47
2022-09-16T18:31:43.840Z,100003.72
2022-09-16T18:34:12.577Z,99971.56
2022-09-16T18:36:40.305Z,100017.03
2022-09-16T18:39:13.015Z,99971.41
2022-09-16T18:41:42.318Z,100026.09
2022-09-16T18:44:16.801Z,99992.97
2022-09-16T18:46:44.579Z,99990.53
2022-09-16T18:49:14.769Z,100035.59
2022-09-16T18:51:51.201Z,100018.91
2022-09-16T18:54:29.060Z,100029.81
2022-09-16T18:56:59.259Z,100038.53
2022-09-16T18:59:29.662Z,100038.53
2022-09-16T19:01:59.926Z,100015.13
2022-09-16T19:04:30.349Z,100047.97
2022-09-16T19:07:07.469Z,100047.16
2022-09-16T19:09:37.495Z,99983.59
2022-09-16T19:12:06.983Z,100056.94
2022-09-16T19:14:34.632Z,100014.19
2022-09-16T19:17:02.758Z,100014.38
2022-09-16T19:19:30.397Z,100010.91
2022-09-16T19:21:58.253Z,100064.91
2022-09-16T19:24:27.235Z,100073.06
2022-09-16T19:26:55.762Z,100065.97
2022-09-16T19:29:23.680Z,100057.09
2022-09-16T19:31:53.036Z,100066.97
2022-09-16T19:34:22.039Z,100047.34
2022-09-16T19:36:53.160Z,100056.84
2022-09-16T19:39:21.493Z,100015.38
2022-09-16T19:41:49.845Z,99993.69
2022-09-16T19:44:18.593Z,100072.91
2022-09-16T19:46:49.561Z,100049.56
2022-09-16T19:49:20.406Z,100042.75
2022-09-16T19:51:49.355Z,100078.81
2022-09-16T19:54:17.453Z,100070.72
2022-09-16T19:56:50.126Z,100007.91
2022-09-16T19:59:19.683Z,100057.03
2022-09-16T20:01:48.315Z,100089.41
2022-09-16T20:04:19.840Z,100058.78
2022-09-16T20:06:48.601Z,100080.72
2022-09-16T20:09:17.163Z,100074.06
2022-09-16T20:11:47.133Z,100094.66
2022-09-16T20:14:19.224Z,100092.69
2022-09-16T20:16:48.008Z,100075.56
2022-09-16T20:19:17.447Z,100068.81
2022-09-16T20:21:45.385Z,100045.06
2022-09-16T20:24:18.506Z,100051.91
2022-09-16T20:26:51.645Z,100084.34
2022-09-16T20:29:20.217Z,100027.22
2022-09-16T20:31:49.779Z,100021.09
2022-09-16T20:34:18.075Z,100007.47
2022-09-16T20:36:46.303Z,100069.00
2022-09-16T20:39:14.535Z,100100.31
2022-09-16T20:41:49.928Z,100056.75
2022-09-16T20:44:18.046Z,100083.16
2022-09-16T20:46:46.553Z,100098.25
2022-09-16T20:49:17.390Z,100087.59
2022-09-16T20:51:45.924Z,100089.09
2022-09-16T20:54:15.775Z,100103.41
2022-09-16T20:56:46.095Z,100077.81
2022-09-16T20:59:15.309Z,100087.69
2022-09-16T21:01:44.202Z,100119.16
2022-09-16T21:04:16.398Z,100139.59
2022-09-16T21:06:47.629Z,100060.03
2022-09-16T21:09:19.556Z,100133.56
2022-09-16T21:11:47.969Z,100145.75
2022-09-16T21:14:17.373Z,100154.34
2022-09-16T21:16:46.234Z,100023.00
2022-09-16T21:19:14.676Z,100145.28
2022-09-16T21:21:44.788Z,100146.63
2022-09-16T21:24:13.515Z,100179.00
2022-09-16T21:26:42.057Z,100170.75
2022-09-16T21:29:13.804Z,100149.47
2022-09-16T21:31:43.488Z,100137.19
2022-09-16T21:34:14.067Z,100128.66
2022-09-16T21:36:42.277Z,100134.44
2022-09-16T21:39:10.831Z,100084.34
2022-09-16T21:41:38.512Z,100128.28
2022-09-16T21:44:06.679Z,100137.19
2022-09-16T21:46:41.808Z,100144.66
2022-09-16T21:49:17.342Z,100101.78
2022-09-16T21:51:45.164Z,100153.53
2022-09-16T21:54:16.573Z,100144.13
2022-09-16T21:56:47.171Z,100132.94
2022-09-16T21:59:15.180Z,100148.03
2022-09-16T22:01:43.787Z,100148.31
2022-09-16T22:04:15.601Z,100145.19
2022-09-16T22:06:44.844Z,100137.16
2022-09-16T22:09:12.598Z,100135.22
2022-09-16T22:11:41.917Z,100101.13
2022-09-16T22:14:11.421Z,100124.91
2022-09-16T22:16:40.474Z,100118.59
2022-09-16T22:19:13.703Z,100078.78
2022-09-16T22:21:43.488Z,100124.50
2022-09-16T22:24:11.934Z,100114.44
2022-09-16T22:26:40.404Z,100083.38
2022-09-16T22:29:09.675Z,100155.69
2022-09-16T22:31:38.893Z,100108.69
2022-09-16T22:34:07.017Z,100164.66
2022-09-16T22:36:36.082Z,100165.00
2022-09-16T22:39:13.030Z,100177.63
2022-09-16T22:41:41.304Z,100170.88
2022-09-16T22:44:09.117Z,100149.34
2022-09-16T22:46:45.690Z,100161.09
2022-09-16T22:49:13.809Z,100167.06
2022-09-16T22:51:42.179Z,100105.84
2022-09-16T22:54:12.678Z,100137.19
2022-09-16T22:56:41.003Z,100160.06
2022-09-16T22:59:16.574Z,100156.06
2022-09-16T23:01:44.298Z,100131.13
2022-09-16T23:04:12.498Z,100162.81
2022-09-16T23:06:40.982Z,100124.16
2022-09-16T23:09:11.017Z,100169.34
2022-09-16T23:11:38.796Z,100135.25
2022-09-16T23:14:06.701Z,100101.38
2022-09-16T23:16:37.296Z,100118.00
2022-09-16T23:19:10.915Z,100157.81
2022-09-16T23:21:39.443Z,100166.53
2022-09-16T23:24:09.916Z,100116.13
2022-09-16T23:26:38.875Z,100117.50
2022-09-16T23:29:09.352Z,100140.53
2022-09-16T23:31:40.490Z,100173.41
2022-09-16T23:34:13.520Z,100155.53
2022-09-16T23:36:41.707Z,100162.84
2022-09-16T23:39:13.669Z,100107.50
2022-09-16T23:41:42.539Z,100133.47
2022-09-16T23:44:13.787Z,100160.44
2022-09-16T23:46:41.679Z,100150.94
2022-09-16T23:49:10.202Z,100093.75
2022-09-16T23:51:38.146Z,100143.63
2022-09-16T23:54:05.793Z,100005.63
2022-09-16T23:56:33.655Z,100156.00
2022-09-16T23:59:05.143Z,100032.06
